首页
METAR-TAF:

METAR-TAF

机场 :

博韦, 法国

纬度: 49-28N, 经度: 002-07E, 海拔: 109米

当前天气观测

该预报发布于26分钟前的14:30 UTC
风速18节,风向西转西南
温度 13°C
湿度 88%
气压 1021 hPa
能見度: 8000
阴天层高于900英尺

METAR: LFOB 231430Z AUTO 25018KT 8000 OVC009 13/11 Q1021 TEMPO 22020G30KT 2000 DZRA OVC004

时间: 15:56 (14:56 UTC)

预报

该预报发布于3小时和56分钟前的11:00 UTC
预报有效从23日的 12点(UTC)到 24日的 12点(UTC)
风速13节,风向西南
能见度10公里或以上
阴天层高于1500英尺
短暂存在
从 23日的 12点(UTC)到 23日的 19点(UTC)
风速20节,风向西南,有时为30节阵风
能見度: 2000
阴天层高于400英尺
毛毛雨, 雨
短暂存在
从 24日的 01点(UTC)到 24日的 11点(UTC)
能見度: 2000
阴天层高于400英尺
毛毛雨, 雨

TAF: LFOB 231100Z 2312/2412 22013KT 9999 OVC015 TEMPO 2312/2319 22020G30KT 2000 DZRA OVC004 TEMPO 2401/2411 2000 DZRA OVC004

超过4000个机场的气象观测和天气预报(METAR&TAF报告)。

可查询的气象台以黄色和红色小点在地图上表示。

将鼠标移到小点上方,可查看气象台名称。

然后点击查看天气观测和预报。

如需切换地图:点击带黑十字的绿色按钮放大地图;点击带横线的绿色按钮缩小地图;或者点击绿色箭头查看邻近地区的地图。


METAR-TAF: